sensor_id;sensor_type;location;lat;lon;timestamp;P1;durP1;ratioP1;P2;durP2;ratioP2
7957;SDS011;4024;52.172;5.378;2022-12-18T00:00:46;63.37;;;31.27;;
7957;SDS011;4024;52.172;5.378;2022-12-18T00:03:12;57.07;;;29.80;;
7957;SDS011;4024;52.172;5.378;2022-12-18T00:05:48;65.27;;;32.77;;
7957;SDS011;4024;52.172;5.378;2022-12-18T00:08:15;63.83;;;32.53;;
7957;SDS011;4024;52.172;5.378;2022-12-18T00:10:44;64.83;;;32.40;;
7957;SDS011;4024;52.172;5.378;2022-12-18T00:13:10;65.40;;;32.47;;
7957;SDS011;4024;52.172;5.378;2022-12-18T00:15:37;66.50;;;32.10;;
7957;SDS011;4024;52.172;5.378;2022-12-18T00:18:04;65.00;;;29.93;;
7957;SDS011;4024;52.172;5.378;2022-12-18T00:20:30;60.13;;;30.63;;
7957;SDS011;4024;52.172;5.378;2022-12-18T00:22:56;65.83;;;30.53;;
7957;SDS011;4024;52.172;5.378;2022-12-18T00:25:22;65.17;;;30.53;;
7957;SDS011;4024;52.172;5.378;2022-12-18T00:27:48;66.83;;;32.13;;
7957;SDS011;4024;52.172;5.378;2022-12-18T00:30:13;61.67;;;31.83;;
7957;SDS011;4024;52.172;5.378;2022-12-18T00:32:39;62.90;;;30.90;;
7957;SDS011;4024;52.172;5.378;2022-12-18T00:35:05;65.30;;;32.83;;
7957;SDS011;4024;52.172;5.378;2022-12-18T00:37:33;66.73;;;33.60;;
7957;SDS011;4024;52.172;5.378;2022-12-18T00:39:59;59.43;;;30.90;;
7957;SDS011;4024;52.172;5.378;2022-12-18T00:42:25;61.47;;;30.67;;
7957;SDS011;4024;52.172;5.378;2022-12-18T00:45:09;63.30;;;32.03;;
7957;SDS011;4024;52.172;5.378;2022-12-18T00:47:35;64.53;;;31.73;;
7957;SDS011;4024;52.172;5.378;2022-12-18T00:50:01;63.63;;;31.23;;
7957;SDS011;4024;52.172;5.378;2022-12-18T00:52:27;65.07;;;32.93;;
7957;SDS011;4024;52.172;5.378;2022-12-18T00:54:52;67.03;;;34.13;;
7957;SDS011;4024;52.172;5.378;2022-12-18T00:57:18;67.67;;;32.00;;
7957;SDS011;4024;52.172;5.378;2022-12-18T00:59:44;64.23;;;32.13;;
7957;SDS011;4024;52.172;5.378;2022-12-18T01:02:10;67.63;;;33.97;;
7957;SDS011;4024;52.172;5.378;2022-12-18T01:04:38;66.33;;;33.50;;
7957;SDS011;4024;52.172;5.378;2022-12-18T01:07:04;70.17;;;33.00;;
7957;SDS011;4024;52.172;5.378;2022-12-18T01:09:29;62.90;;;31.37;;
7957;SDS011;4024;52.172;5.378;2022-12-18T01:11:55;65.83;;;33.63;;
7957;SDS011;4024;52.172;5.378;2022-12-18T01:14:22;69.73;;;32.70;;
7957;SDS011;4024;52.172;5.378;2022-12-18T01:16:47;73.63;;;35.30;;
7957;SDS011;4024;52.172;5.378;2022-12-18T01:19:13;66.03;;;33.27;;
7957;SDS011;4024;52.172;5.378;2022-12-18T01:21:39;72.90;;;33.03;;
7957;SDS011;4024;52.172;5.378;2022-12-18T01:24:05;66.63;;;32.93;;
7957;SDS011;4024;52.172;5.378;2022-12-18T01:26:31;68.53;;;32.23;;
7957;SDS011;4024;52.172;5.378;2022-12-18T01:28:57;65.10;;;32.33;;
7957;SDS011;4024;52.172;5.378;2022-12-18T01:31:24;69.83;;;33.30;;
7957;SDS011;4024;52.172;5.378;2022-12-18T01:33:52;66.63;;;32.20;;
7957;SDS011;4024;52.172;5.378;2022-12-18T01:36:25;68.40;;;32.33;;
7957;SDS011;4024;52.172;5.378;2022-12-18T01:38:53;67.87;;;32.67;;
7957;SDS011;4024;52.172;5.378;2022-12-18T01:41:21;59.57;;;30.27;;
7957;SDS011;4024;52.172;5.378;2022-12-18T01:43:55;66.00;;;31.40;;
7957;SDS011;4024;52.172;5.378;2022-12-18T01:46:23;66.77;;;32.00;;
7957;SDS011;4024;52.172;5.378;2022-12-18T01:48:54;66.70;;;30.20;;
7957;SDS011;4024;52.172;5.378;2022-12-18T01:51:25;65.97;;;32.20;;
7957;SDS011;4024;52.172;5.378;2022-12-18T01:53:52;64.90;;;30.93;;
7957;SDS011;4024;52.172;5.378;2022-12-18T01:56:18;67.83;;;31.47;;
7957;SDS011;4024;52.172;5.378;2022-12-18T01:58:56;67.87;;;32.10;;
7957;SDS011;4024;52.172;5.378;2022-12-18T02:01:27;64.10;;;31.70;;
7957;SDS011;4024;52.172;5.378;2022-12-18T02:03:55;69.17;;;32.83;;
7957;SDS011;4024;52.172;5.378;2022-12-18T02:06:28;65.30;;;31.43;;
7957;SDS011;4024;52.172;5.378;2022-12-18T02:09:23;71.00;;;32.83;;
7957;SDS011;4024;52.172;5.378;2022-12-18T02:12:13;68.30;;;30.67;;
7957;SDS011;4024;52.172;5.378;2022-12-18T02:14:55;65.97;;;31.23;;
7957;SDS011;4024;52.172;5.378;2022-12-18T02:17:37;71.67;;;32.57;;
7957;SDS011;4024;52.172;5.378;2022-12-18T02:20:34;67.10;;;31.17;;
7957;SDS011;4024;52.172;5.378;2022-12-18T02:25:52;66.67;;;32.30;;
7957;SDS011;4024;52.172;5.378;2022-12-18T02:28:18;68.63;;;31.77;;
7957;SDS011;4024;52.172;5.378;2022-12-18T02:30:48;63.80;;;31.60;;
7957;SDS011;4024;52.172;5.378;2022-12-18T02:33:15;69.27;;;31.60;;
7957;SDS011;4024;52.172;5.378;2022-12-18T02:35:44;64.10;;;31.50;;
7957;SDS011;4024;52.172;5.378;2022-12-18T02:38:11;61.43;;;31.00;;
7957;SDS011;4024;52.172;5.378;2022-12-18T02:40:39;62.43;;;30.47;;
7957;SDS011;4024;52.172;5.378;2022-12-18T02:43:11;65.47;;;32.33;;
7957;SDS011;4024;52.172;5.378;2022-12-18T02:45:49;68.90;;;32.43;;
7957;SDS011;4024;52.172;5.378;2022-12-18T02:48:22;67.90;;;31.13;;
7957;SDS011;4024;52.172;5.378;2022-12-18T02:51:33;66.67;;;32.87;;
7957;SDS011;4024;52.172;5.378;2022-12-18T02:53:50;67.82;;;31.50;;
7957;SDS011;4024;52.172;5.378;2022-12-18T02:56:46;67.43;;;32.60;;
7957;SDS011;4024;52.172;5.378;2022-12-18T02:59:24;59.22;;;29.77;;
7957;SDS011;4024;52.172;5.378;2022-12-18T03:01:58;60.07;;;31.23;;
7957;SDS011;4024;52.172;5.378;2022-12-18T03:04:31;61.77;;;31.47;;
7957;SDS011;4024;52.172;5.378;2022-12-18T03:07:25;61.23;;;30.50;;
7957;SDS011;4024;52.172;5.378;2022-12-18T03:09:59;64.45;;;30.58;;
7957;SDS011;4024;52.172;5.378;2022-12-18T03:12:35;60.03;;;29.73;;
7957;SDS011;4024;52.172;5.378;2022-12-18T03:17:48;65.97;;;30.53;;
7957;SDS011;4024;52.172;5.378;2022-12-18T03:20:21;60.50;;;30.10;;
7957;SDS011;4024;52.172;5.378;2022-12-18T03:22:49;57.65;;;29.40;;
7957;SDS011;4024;52.172;5.378;2022-12-18T03:25:18;62.20;;;29.37;;
7957;SDS011;4024;52.172;5.378;2022-12-18T03:27:49;56.22;;;29.40;;
7957;SDS011;4024;52.172;5.378;2022-12-18T03:30:17;58.83;;;29.93;;
7957;SDS011;4024;52.172;5.378;2022-12-18T03:32:47;60.77;;;29.80;;
7957;SDS011;4024;52.172;5.378;2022-12-18T03:35:19;60.67;;;30.88;;
7957;SDS011;4024;52.172;5.378;2022-12-18T03:37:47;55.83;;;28.67;;
7957;SDS011;4024;52.172;5.378;2022-12-18T03:40:14;56.83;;;27.30;;
7957;SDS011;4024;52.172;5.378;2022-12-18T03:45:23;55.58;;;30.20;;
7957;SDS011;4024;52.172;5.378;2022-12-18T03:48:00;58.08;;;28.92;;
7957;SDS011;4024;52.172;5.378;2022-12-18T03:51:05;56.27;;;29.13;;
7957;SDS011;4024;52.172;5.378;2022-12-18T03:53:36;54.40;;;27.73;;
7957;SDS011;4024;52.172;5.378;2022-12-18T03:56:12;54.03;;;27.65;;
7957;SDS011;4024;52.172;5.378;2022-12-18T03:58:40;56.17;;;28.00;;
7957;SDS011;4024;52.172;5.378;2022-12-18T04:01:07;51.15;;;26.67;;
7957;SDS011;4024;52.172;5.378;2022-12-18T04:03:37;53.05;;;26.52;;
7957;SDS011;4024;52.172;5.378;2022-12-18T04:06:03;52.85;;;27.65;;
7957;SDS011;4024;52.172;5.378;2022-12-18T04:08:30;46.90;;;26.35;;
7957;SDS011;4024;52.172;5.378;2022-12-18T04:10:58;49.25;;;26.88;;
7957;SDS011;4024;52.172;5.378;2022-12-18T04:13:27;50.22;;;26.98;;
7957;SDS011;4024;52.172;5.378;2022-12-18T04:15:54;45.28;;;25.35;;
7957;SDS011;4024;52.172;5.378;2022-12-18T04:18:20;46.50;;;24.53;;
7957;SDS011;4024;52.172;5.378;2022-12-18T04:20:46;46.43;;;24.87;;
7957;SDS011;4024;52.172;5.378;2022-12-18T04:23:11;46.13;;;25.27;;
7957;SDS011;4024;52.172;5.378;2022-12-18T04:25:37;44.17;;;24.17;;
7957;SDS011;4024;52.172;5.378;2022-12-18T04:28:03;40.07;;;24.00;;
7957;SDS011;4024;52.172;5.378;2022-12-18T04:30:28;41.57;;;23.97;;
7957;SDS011;4024;52.172;5.378;2022-12-18T04:32:54;44.70;;;23.60;;
7957;SDS011;4024;52.172;5.378;2022-12-18T04:35:19;42.73;;;23.53;;
7957;SDS011;4024;52.172;5.378;2022-12-18T04:37:45;40.37;;;22.47;;
7957;SDS011;4024;52.172;5.378;2022-12-18T04:40:11;40.60;;;22.90;;
7957;SDS011;4024;52.172;5.378;2022-12-18T04:42:37;44.58;;;24.48;;
7957;SDS011;4024;52.172;5.378;2022-12-18T04:45:04;35.88;;;20.60;;
7957;SDS011;4024;52.172;5.378;2022-12-18T04:47:30;39.25;;;21.95;;
7957;SDS011;4024;52.172;5.378;2022-12-18T04:49:56;36.60;;;21.63;;
7957;SDS011;4024;52.172;5.378;2022-12-18T04:52:21;41.67;;;21.63;;
7957;SDS011;4024;52.172;5.378;2022-12-18T04:54:47;34.97;;;22.40;;
7957;SDS011;4024;52.172;5.378;2022-12-18T04:57:12;37.43;;;21.97;;
7957;SDS011;4024;52.172;5.378;2022-12-18T04:59:38;33.33;;;20.93;;
7957;SDS011;4024;52.172;5.378;2022-12-18T05:02:04;36.93;;;21.10;;
7957;SDS011;4024;52.172;5.378;2022-12-18T05:04:29;34.67;;;21.23;;
7957;SDS011;4024;52.172;5.378;2022-12-18T05:06:55;35.60;;;21.00;;
7957;SDS011;4024;52.172;5.378;2022-12-18T05:09:20;37.63;;;21.00;;
7957;SDS011;4024;52.172;5.378;2022-12-18T05:11:46;33.63;;;19.77;;
7957;SDS011;4024;52.172;5.378;2022-12-18T05:14:12;34.87;;;19.87;;
7957;SDS011;4024;52.172;5.378;2022-12-18T05:16:37;35.10;;;20.23;;
7957;SDS011;4024;52.172;5.378;2022-12-18T05:19:03;38.73;;;21.07;;
7957;SDS011;4024;52.172;5.378;2022-12-18T05:21:29;31.93;;;19.30;;
7957;SDS011;4024;52.172;5.378;2022-12-18T05:23:54;32.13;;;19.13;;
7957;SDS011;4024;52.172;5.378;2022-12-18T05:26:20;35.67;;;19.20;;
7957;SDS011;4024;52.172;5.378;2022-12-18T05:28:46;33.57;;;20.40;;
7957;SDS011;4024;52.172;5.378;2022-12-18T05:31:11;30.75;;;19.17;;
7957;SDS011;4024;52.172;5.378;2022-12-18T05:33:38;34.45;;;18.88;;
7957;SDS011;4024;52.172;5.378;2022-12-18T05:36:04;29.67;;;17.57;;
7957;SDS011;4024;52.172;5.378;2022-12-18T05:38:33;29.17;;;17.43;;
7957;SDS011;4024;52.172;5.378;2022-12-18T05:41:01;26.83;;;16.93;;
7957;SDS011;4024;52.172;5.378;2022-12-18T05:43:27;33.17;;;18.13;;
7957;SDS011;4024;52.172;5.378;2022-12-18T05:45:54;30.97;;;17.13;;
7957;SDS011;4024;52.172;5.378;2022-12-18T05:48:20;30.57;;;18.20;;
7957;SDS011;4024;52.172;5.378;2022-12-18T05:50:47;31.97;;;17.60;;
7957;SDS011;4024;52.172;5.378;2022-12-18T05:53:14;31.63;;;18.70;;
7957;SDS011;4024;52.172;5.378;2022-12-18T05:55:42;26.83;;;16.70;;
7957;SDS011;4024;52.172;5.378;2022-12-18T05:58:09;30.27;;;18.00;;
7957;SDS011;4024;52.172;5.378;2022-12-18T06:00:36;26.58;;;16.33;;
7957;SDS011;4024;52.172;5.378;2022-12-18T06:03:09;28.83;;;16.43;;
7957;SDS011;4024;52.172;5.378;2022-12-18T06:05:37;28.20;;;16.60;;
7957;SDS011;4024;52.172;5.378;2022-12-18T06:08:09;29.75;;;17.52;;
7957;SDS011;4024;52.172;5.378;2022-12-18T06:10:35;29.80;;;17.92;;
7957;SDS011;4024;52.172;5.378;2022-12-18T06:13:02;26.15;;;16.90;;
7957;SDS011;4024;52.172;5.378;2022-12-18T06:15:28;24.97;;;17.07;;
7957;SDS011;4024;52.172;5.378;2022-12-18T06:17:53;31.20;;;17.60;;
7957;SDS011;4024;52.172;5.378;2022-12-18T06:20:19;29.40;;;17.60;;
7957;SDS011;4024;52.172;5.378;2022-12-18T06:22:45;29.80;;;18.30;;
7957;SDS011;4024;52.172;5.378;2022-12-18T06:25:11;29.53;;;17.67;;
7957;SDS011;4024;52.172;5.378;2022-12-18T06:27:37;28.83;;;17.17;;
7957;SDS011;4024;52.172;5.378;2022-12-18T06:30:03;30.87;;;18.07;;
7957;SDS011;4024;52.172;5.378;2022-12-18T06:32:31;25.98;;;18.15;;
7957;SDS011;4024;52.172;5.378;2022-12-18T06:34:56;33.07;;;18.73;;
7957;SDS011;4024;52.172;5.378;2022-12-18T06:37:22;31.97;;;18.53;;
7957;SDS011;4024;52.172;5.378;2022-12-18T06:39:51;30.38;;;17.20;;
7957;SDS011;4024;52.172;5.378;2022-12-18T06:42:17;28.65;;;17.77;;
7957;SDS011;4024;52.172;5.378;2022-12-18T06:44:43;31.70;;;18.77;;
7957;SDS011;4024;52.172;5.378;2022-12-18T06:47:09;33.43;;;17.97;;
7957;SDS011;4024;52.172;5.378;2022-12-18T06:49:34;30.87;;;18.80;;
7957;SDS011;4024;52.172;5.378;2022-12-18T06:52:00;34.27;;;18.33;;
7957;SDS011;4024;52.172;5.378;2022-12-18T06:54:26;29.50;;;18.47;;
7957;SDS011;4024;52.172;5.378;2022-12-18T06:56:51;33.73;;;19.07;;
7957;SDS011;4024;52.172;5.378;2022-12-18T06:59:17;30.93;;;18.50;;
7957;SDS011;4024;52.172;5.378;2022-12-18T07:01:42;29.77;;;16.97;;
7957;SDS011;4024;52.172;5.378;2022-12-18T07:04:08;27.17;;;17.33;;
7957;SDS011;4024;52.172;5.378;2022-12-18T07:06:34;26.67;;;17.70;;
7957;SDS011;4024;52.172;5.378;2022-12-18T07:08:59;31.13;;;18.67;;
7957;SDS011;4024;52.172;5.378;2022-12-18T07:11:25;34.37;;;18.80;;
7957;SDS011;4024;52.172;5.378;2022-12-18T07:13:51;29.70;;;18.07;;
7957;SDS011;4024;52.172;5.378;2022-12-18T07:16:18;34.75;;;19.27;;
7957;SDS011;4024;52.172;5.378;2022-12-18T07:18:45;30.20;;;18.80;;
7957;SDS011;4024;52.172;5.378;2022-12-18T07:21:12;28.43;;;19.03;;
7957;SDS011;4024;52.172;5.378;2022-12-18T07:23:40;30.63;;;17.77;;
7957;SDS011;4024;52.172;5.378;2022-12-18T07:26:06;27.30;;;17.00;;
7957;SDS011;4024;52.172;5.378;2022-12-18T07:28:34;30.15;;;17.85;;
7957;SDS011;4024;52.172;5.378;2022-12-18T07:31:04;25.95;;;17.50;;
7957;SDS011;4024;52.172;5.378;2022-12-18T07:33:35;25.38;;;17.10;;
7957;SDS011;4024;52.172;5.378;2022-12-18T07:36:02;30.48;;;17.70;;
7957;SDS011;4024;52.172;5.378;2022-12-18T07:38:29;30.23;;;18.55;;
7957;SDS011;4024;52.172;5.378;2022-12-18T07:41:06;29.35;;;16.65;;
7957;SDS011;4024;52.172;5.378;2022-12-18T07:43:34;26.77;;;17.00;;
7957;SDS011;4024;52.172;5.378;2022-12-18T07:46:00;30.95;;;17.75;;
7957;SDS011;4024;52.172;5.378;2022-12-18T07:48:27;29.90;;;16.80;;
7957;SDS011;4024;52.172;5.378;2022-12-18T07:50:53;23.67;;;15.75;;
7957;SDS011;4024;52.172;5.378;2022-12-18T07:53:22;28.80;;;16.58;;
7957;SDS011;4024;52.172;5.378;2022-12-18T07:55:48;26.20;;;15.83;;
7957;SDS011;4024;52.172;5.378;2022-12-18T07:58:13;30.40;;;17.87;;
7957;SDS011;4024;52.172;5.378;2022-12-18T08:00:39;27.67;;;16.60;;
7957;SDS011;4024;52.172;5.378;2022-12-18T08:03:05;29.57;;;16.50;;
7957;SDS011;4024;52.172;5.378;2022-12-18T08:05:30;28.40;;;16.67;;
7957;SDS011;4024;52.172;5.378;2022-12-18T08:07:58;28.10;;;16.30;;
7957;SDS011;4024;52.172;5.378;2022-12-18T08:10:23;26.58;;;16.27;;
7957;SDS011;4024;52.172;5.378;2022-12-18T08:12:49;28.20;;;16.80;;
7957;SDS011;4024;52.172;5.378;2022-12-18T08:15:15;28.63;;;16.83;;
7957;SDS011;4024;52.172;5.378;2022-12-18T08:17:41;27.00;;;16.67;;
7957;SDS011;4024;52.172;5.378;2022-12-18T08:20:07;29.93;;;17.20;;
7957;SDS011;4024;52.172;5.378;2022-12-18T08:22:34;28.25;;;17.15;;
7957;SDS011;4024;52.172;5.378;2022-12-18T08:25:03;28.25;;;16.65;;
7957;SDS011;4024;52.172;5.378;2022-12-18T08:27:29;27.90;;;16.75;;
7957;SDS011;4024;52.172;5.378;2022-12-18T08:29:55;25.00;;;15.80;;
7957;SDS011;4024;52.172;5.378;2022-12-18T08:32:21;30.33;;;16.75;;
7957;SDS011;4024;52.172;5.378;2022-12-18T08:34:47;26.10;;;16.07;;
7957;SDS011;4024;52.172;5.378;2022-12-18T08:37:13;29.53;;;17.40;;
7957;SDS011;4024;52.172;5.378;2022-12-18T08:39:38;24.60;;;16.87;;
7957;SDS011;4024;52.172;5.378;2022-12-18T08:42:04;26.00;;;16.57;;
7957;SDS011;4024;52.172;5.378;2022-12-18T08:44:48;29.77;;;17.17;;
7957;SDS011;4024;52.172;5.378;2022-12-18T08:47:14;27.63;;;16.67;;
7957;SDS011;4024;52.172;5.378;2022-12-18T08:49:39;28.73;;;17.00;;
7957;SDS011;4024;52.172;5.378;2022-12-18T08:52:05;26.87;;;16.50;;
7957;SDS011;4024;52.172;5.378;2022-12-18T08:54:31;27.63;;;16.30;;
7957;SDS011;4024;52.172;5.378;2022-12-18T08:56:57;27.47;;;17.47;;
7957;SDS011;4024;52.172;5.378;2022-12-18T08:59:23;29.17;;;17.03;;
7957;SDS011;4024;52.172;5.378;2022-12-18T09:01:49;26.47;;;17.97;;
7957;SDS011;4024;52.172;5.378;2022-12-18T09:04:15;24.87;;;16.40;;
7957;SDS011;4024;52.172;5.378;2022-12-18T09:06:40;27.37;;;16.37;;
7957;SDS011;4024;52.172;5.378;2022-12-18T09:09:06;29.50;;;17.27;;
7957;SDS011;4024;52.172;5.378;2022-12-18T09:11:32;32.00;;;17.97;;
7957;SDS011;4024;52.172;5.378;2022-12-18T09:13:58;29.70;;;18.00;;
7957;SDS011;4024;52.172;5.378;2022-12-18T09:16:25;26.60;;;18.05;;
7957;SDS011;4024;52.172;5.378;2022-12-18T09:18:53;26.73;;;17.10;;
7957;SDS011;4024;52.172;5.378;2022-12-18T09:21:24;29.57;;;17.17;;
7957;SDS011;4024;52.172;5.378;2022-12-18T09:23:53;27.33;;;17.10;;
7957;SDS011;4024;52.172;5.378;2022-12-18T09:26:20;28.97;;;18.53;;
7957;SDS011;4024;52.172;5.378;2022-12-18T09:28:46;27.83;;;18.03;;
7957;SDS011;4024;52.172;5.378;2022-12-18T09:31:15;26.37;;;16.40;;
7957;SDS011;4024;52.172;5.378;2022-12-18T09:33:42;27.47;;;16.83;;
7957;SDS011;4024;52.172;5.378;2022-12-18T09:36:09;27.87;;;17.47;;
7957;SDS011;4024;52.172;5.378;2022-12-18T09:38:36;30.13;;;17.77;;
7957;SDS011;4024;52.172;5.378;2022-12-18T09:44:04;23.90;;;15.67;;
7957;SDS011;4024;52.172;5.378;2022-12-18T09:46:37;27.80;;;17.30;;
7957;SDS011;4024;52.172;5.378;2022-12-18T09:49:06;26.07;;;15.67;;
7957;SDS011;4024;52.172;5.378;2022-12-18T09:51:39;23.90;;;15.53;;
7957;SDS011;4024;52.172;5.378;2022-12-18T09:54:30;26.67;;;17.37;;
7957;SDS011;4024;52.172;5.378;2022-12-18T09:57:00;23.67;;;16.10;;
7957;SDS011;4024;52.172;5.378;2022-12-18T09:59:28;24.63;;;14.80;;
7957;SDS011;4024;52.172;5.378;2022-12-18T10:02:11;24.13;;;15.63;;
7957;SDS011;4024;52.172;5.378;2022-12-18T10:04:47;22.70;;;15.23;;
7957;SDS011;4024;52.172;5.378;2022-12-18T10:07:29;23.57;;;15.93;;
7957;SDS011;4024;52.172;5.378;2022-12-18T10:10:10;23.97;;;15.57;;
7957;SDS011;4024;52.172;5.378;2022-12-18T10:12:47;22.60;;;14.43;;
7957;SDS011;4024;52.172;5.378;2022-12-18T10:15:36;21.47;;;14.30;;
7957;SDS011;4024;52.172;5.378;2022-12-18T10:21:10;21.93;;;13.80;;
7957;SDS011;4024;52.172;5.378;2022-12-18T10:24:02;21.50;;;13.97;;
7957;SDS011;4024;52.172;5.378;2022-12-18T10:26:49;22.37;;;13.73;;
7957;SDS011;4024;52.172;5.378;2022-12-18T10:29:16;19.00;;;13.07;;
7957;SDS011;4024;52.172;5.378;2022-12-18T10:31:42;18.77;;;13.47;;
7957;SDS011;4024;52.172;5.378;2022-12-18T10:34:14;22.87;;;14.37;;
7957;SDS011;4024;52.172;5.378;2022-12-18T10:36:40;22.70;;;13.77;;
7957;SDS011;4024;52.172;5.378;2022-12-18T10:39:20;21.07;;;13.57;;
7957;SDS011;4024;52.172;5.378;2022-12-18T10:41:51;20.20;;;13.13;;
7957;SDS011;4024;52.172;5.378;2022-12-18T10:46:50;20.70;;;13.77;;
7957;SDS011;4024;52.172;5.378;2022-12-18T10:49:29;19.77;;;13.10;;
7957;SDS011;4024;52.172;5.378;2022-12-18T10:52:07;20.33;;;12.87;;
7957;SDS011;4024;52.172;5.378;2022-12-18T10:54:53;20.17;;;13.43;;
7957;SDS011;4024;52.172;5.378;2022-12-18T10:59:57;17.73;;;12.63;;
7957;SDS011;4024;52.172;5.378;2022-12-18T11:02:34;20.13;;;13.63;;
7957;SDS011;4024;52.172;5.378;2022-12-18T11:05:02;20.87;;;14.10;;
7957;SDS011;4024;52.172;5.378;2022-12-18T11:07:48;22.90;;;13.60;;
7957;SDS011;4024;52.172;5.378;2022-12-18T11:10:16;21.77;;;13.50;;
7957;SDS011;4024;52.172;5.378;2022-12-18T11:12:43;17.93;;;12.87;;
7957;SDS011;4024;52.172;5.378;2022-12-18T11:15:42;21.13;;;13.20;;
7957;SDS011;4024;52.172;5.378;2022-12-18T11:18:01;18.17;;;12.20;;
7957;SDS011;4024;52.172;5.378;2022-12-18T11:20:30;21.67;;;13.57;;
7957;SDS011;4024;52.172;5.378;2022-12-18T11:23:04;20.07;;;12.50;;
7957;SDS011;4024;52.172;5.378;2022-12-18T11:25:35;19.57;;;12.70;;
7957;SDS011;4024;52.172;5.378;2022-12-18T11:28:03;22.10;;;12.83;;
7957;SDS011;4024;52.172;5.378;2022-12-18T11:30:31;20.17;;;12.13;;
7957;SDS011;4024;52.172;5.378;2022-12-18T11:33:20;19.60;;;13.30;;
7957;SDS011;4024;52.172;5.378;2022-12-18T11:41:00;17.47;;;12.13;;
7957;SDS011;4024;52.172;5.378;2022-12-18T11:43:47;19.00;;;12.03;;
7957;SDS011;4024;52.172;5.378;2022-12-18T11:46:26;19.00;;;12.23;;
7957;SDS011;4024;52.172;5.378;2022-12-18T11:49:01;17.67;;;12.20;;
7957;SDS011;4024;52.172;5.378;2022-12-18T11:51:51;19.40;;;12.20;;
7957;SDS011;4024;52.172;5.378;2022-12-18T11:54:33;18.27;;;11.77;;
7957;SDS011;4024;52.172;5.378;2022-12-18T11:59:55;17.70;;;12.13;;
7957;SDS011;4024;52.172;5.378;2022-12-18T12:02:40;19.93;;;11.73;;
7957;SDS011;4024;52.172;5.378;2022-12-18T12:16:19;17.80;;;12.13;;
7957;SDS011;4024;52.172;5.378;2022-12-18T12:22:10;20.43;;;12.93;;
7957;SDS011;4024;52.172;5.378;2022-12-18T12:32:50;20.17;;;12.83;;
7957;SDS011;4024;52.172;5.378;2022-12-18T12:35:29;20.87;;;12.43;;
7957;SDS011;4024;52.172;5.378;2022-12-18T12:38:19;17.20;;;12.03;;
7957;SDS011;4024;52.172;5.378;2022-12-18T12:41:00;20.33;;;12.70;;
7957;SDS011;4024;52.172;5.378;2022-12-18T12:46:07;23.07;;;13.67;;
7957;SDS011;4024;52.172;5.378;2022-12-18T12:48:56;19.80;;;12.77;;
7957;SDS011;4024;52.172;5.378;2022-12-18T12:51:30;20.27;;;13.17;;
7957;SDS011;4024;52.172;5.378;2022-12-18T12:53:59;22.27;;;13.23;;
7957;SDS011;4024;52.172;5.378;2022-12-18T12:56:37;23.73;;;13.27;;
7957;SDS011;4024;52.172;5.378;2022-12-18T13:07:23;17.90;;;12.47;;
7957;SDS011;4024;52.172;5.378;2022-12-18T13:20:42;19.43;;;13.27;;
7957;SDS011;4024;52.172;5.378;2022-12-18T13:23:19;19.90;;;13.30;;
7957;SDS011;4024;52.172;5.378;2022-12-18T13:25:53;20.83;;;13.60;;
7957;SDS011;4024;52.172;5.378;2022-12-18T13:28:20;20.70;;;14.27;;
7957;SDS011;4024;52.172;5.378;2022-12-18T13:30:48;20.23;;;13.07;;
7957;SDS011;4024;52.172;5.378;2022-12-18T13:40:58;20.10;;;12.90;;
7957;SDS011;4024;52.172;5.378;2022-12-18T13:43:29;20.10;;;13.73;;
7957;SDS011;4024;52.172;5.378;2022-12-18T13:46:04;21.23;;;14.10;;
7957;SDS011;4024;52.172;5.378;2022-12-18T13:48:59;19.03;;;13.77;;
7957;SDS011;4024;52.172;5.378;2022-12-18T13:51:25;18.73;;;13.13;;
7957;SDS011;4024;52.172;5.378;2022-12-18T13:56:31;20.10;;;13.97;;
7957;SDS011;4024;52.172;5.378;2022-12-18T14:01:48;21.23;;;13.77;;
7957;SDS011;4024;52.172;5.378;2022-12-18T14:04:20;19.90;;;13.53;;
7957;SDS011;4024;52.172;5.378;2022-12-18T14:06:47;16.03;;;12.00;;
7957;SDS011;4024;52.172;5.378;2022-12-18T14:09:15;19.53;;;12.90;;
7957;SDS011;4024;52.172;5.378;2022-12-18T14:11:48;19.77;;;13.27;;
7957;SDS011;4024;52.172;5.378;2022-12-18T14:14:15;19.67;;;13.47;;
7957;SDS011;4024;52.172;5.378;2022-12-18T14:16:43;19.73;;;13.40;;
7957;SDS011;4024;52.172;5.378;2022-12-18T14:19:14;20.53;;;13.83;;
7957;SDS011;4024;52.172;5.378;2022-12-18T14:21:45;20.00;;;13.03;;
7957;SDS011;4024;52.172;5.378;2022-12-18T14:24:16;21.33;;;13.47;;
7957;SDS011;4024;52.172;5.378;2022-12-18T14:26:44;21.07;;;14.53;;
7957;SDS011;4024;52.172;5.378;2022-12-18T14:29:28;21.27;;;14.03;;
7957;SDS011;4024;52.172;5.378;2022-12-18T14:32:18;24.37;;;13.73;;
7957;SDS011;4024;52.172;5.378;2022-12-18T14:34:48;23.13;;;14.57;;
7957;SDS011;4024;52.172;5.378;2022-12-18T14:37:25;21.10;;;13.63;;
7957;SDS011;4024;52.172;5.378;2022-12-18T14:39:58;20.57;;;14.57;;
7957;SDS011;4024;52.172;5.378;2022-12-18T14:42:26;20.73;;;13.80;;
7957;SDS011;4024;52.172;5.378;2022-12-18T14:47:56;22.07;;;14.00;;
7957;SDS011;4024;52.172;5.378;2022-12-18T14:50:22;19.50;;;13.67;;
7957;SDS011;4024;52.172;5.378;2022-12-18T14:52:48;21.10;;;14.67;;
7957;SDS011;4024;52.172;5.378;2022-12-18T14:55:15;23.67;;;15.03;;
7957;SDS011;4024;52.172;5.378;2022-12-18T14:57:44;18.77;;;13.80;;
7957;SDS011;4024;52.172;5.378;2022-12-18T15:00:15;20.97;;;14.40;;
7957;SDS011;4024;52.172;5.378;2022-12-18T15:02:46;22.73;;;15.17;;
7957;SDS011;4024;52.172;5.378;2022-12-18T15:05:31;20.80;;;14.13;;
7957;SDS011;4024;52.172;5.378;2022-12-18T15:07:58;20.60;;;13.80;;
7957;SDS011;4024;52.172;5.378;2022-12-18T15:10:26;22.20;;;14.93;;
7957;SDS011;4024;52.172;5.378;2022-12-18T15:20:56;24.27;;;15.37;;
7957;SDS011;4024;52.172;5.378;2022-12-18T15:23:35;21.67;;;14.20;;
7957;SDS011;4024;52.172;5.378;2022-12-18T15:26:11;19.40;;;14.13;;
7957;SDS011;4024;52.172;5.378;2022-12-18T15:28:57;23.43;;;15.10;;
7957;SDS011;4024;52.172;5.378;2022-12-18T15:36:21;21.77;;;14.73;;
7957;SDS011;4024;52.172;5.378;2022-12-18T15:38:52;22.30;;;14.43;;
7957;SDS011;4024;52.172;5.378;2022-12-18T15:41:19;22.53;;;15.80;;
7957;SDS011;4024;52.172;5.378;2022-12-18T15:43:49;21.33;;;14.57;;
7957;SDS011;4024;52.172;5.378;2022-12-18T15:46:25;22.00;;;15.37;;
7957;SDS011;4024;52.172;5.378;2022-12-18T15:48:55;21.77;;;14.60;;
7957;SDS011;4024;52.172;5.378;2022-12-18T15:51:23;21.57;;;14.50;;
7957;SDS011;4024;52.172;5.378;2022-12-18T15:53:55;21.10;;;14.23;;
7957;SDS011;4024;52.172;5.378;2022-12-18T15:56:22;23.30;;;15.53;;
7957;SDS011;4024;52.172;5.378;2022-12-18T15:59:17;22.93;;;15.53;;
7957;SDS011;4024;52.172;5.378;2022-12-18T16:01:46;21.27;;;15.07;;
7957;SDS011;4024;52.172;5.378;2022-12-18T16:04:15;23.30;;;15.20;;
7957;SDS011;4024;52.172;5.378;2022-12-18T16:06:42;25.97;;;15.80;;
7957;SDS011;4024;52.172;5.378;2022-12-18T16:09:08;27.13;;;15.63;;
7957;SDS011;4024;52.172;5.378;2022-12-18T16:11:34;22.77;;;15.37;;
7957;SDS011;4024;52.172;5.378;2022-12-18T16:14:18;26.70;;;15.77;;
7957;SDS011;4024;52.172;5.378;2022-12-18T16:16:52;25.50;;;16.20;;
7957;SDS011;4024;52.172;5.378;2022-12-18T16:19:20;27.30;;;15.37;;
7957;SDS011;4024;52.172;5.378;2022-12-18T16:21:49;23.37;;;15.80;;
7957;SDS011;4024;52.172;5.378;2022-12-18T16:24:18;25.07;;;16.67;;
7957;SDS011;4024;52.172;5.378;2022-12-18T16:26:46;25.43;;;16.37;;
7957;SDS011;4024;52.172;5.378;2022-12-18T16:29:13;25.10;;;15.77;;
7957;SDS011;4024;52.172;5.378;2022-12-18T16:31:39;25.20;;;16.97;;
7957;SDS011;4024;52.172;5.378;2022-12-18T16:36:55;25.43;;;16.70;;
7957;SDS011;4024;52.172;5.378;2022-12-18T16:39:25;24.60;;;16.23;;
7957;SDS011;4024;52.172;5.378;2022-12-18T16:41:51;25.43;;;15.93;;
7957;SDS011;4024;52.172;5.378;2022-12-18T16:44:17;26.43;;;17.00;;
7957;SDS011;4024;52.172;5.378;2022-12-18T16:46:44;24.57;;;16.03;;
7957;SDS011;4024;52.172;5.378;2022-12-18T16:49:16;24.90;;;16.70;;